Time;durP1;ratioP1;P1;durP2;ratioP2;P2;SDS_P1;SDS_P2;PMS_P1;PMS_P2;Temp;Humidity;BMP_temperature;BMP_pressure;BME280_temperature;BME280_humidity;BME280_pressure;Samples;Min_cycle;Max_cycle;Signal;HPM_P1;HPM_P2
2023/06/04 00:00:58;;;;;;;36.37;6.43;;;22.70;51.40;;;;;;5009050;28;20208;-84
2023/06/04 00:03:25;;;;;;;51.57;7.67;;;22.70;52.00;;;;;;5009562;28;20219;-85
2023/06/04 00:05:52;;;;;;;50.47;7.67;;;22.70;51.40;;;;;;5006982;28;20206;-86
2023/06/04 00:08:19;;;;;;;38.53;6.63;;;22.70;51.50;;;;;;5007576;28;20197;-85
2023/06/04 00:10:46;;;;;;;38.83;6.30;;;22.60;51.30;;;;;;5009957;28;20640;-84
2023/06/04 00:13:13;;;;;;;40.17;7.23;;;22.60;51.30;;;;;;5008943;28;20201;-86
2023/06/04 00:15:41;;;;;;;38.70;6.83;;;22.60;51.30;;;;;;5008009;28;20216;-85
2023/06/04 00:18:08;;;;;;;53.80;7.70;;;22.60;51.30;;;;;;5008983;28;20213;-84
2023/06/04 00:20:35;;;;;;;44.13;6.87;;;22.60;51.30;;;;;;4993213;28;20205;-84
2023/06/04 00:23:02;;;;;;;37.63;6.97;;;22.60;51.30;;;;;;5009813;28;20197;-85
2023/06/04 00:25:29;;;;;;;32.77;6.43;;;22.60;51.30;;;;;;5007519;28;20227;-87
2023/06/04 00:27:56;;;;;;;52.20;7.70;;;22.60;51.30;;;;;;5007090;28;20201;-84
2023/06/04 00:30:23;;;;;;;44.27;7.40;;;22.50;51.20;;;;;;5007443;28;20233;-85
2023/06/04 00:32:51;;;;;;;48.80;7.50;;;22.60;51.30;;;;;;5008361;28;20297;-85
2023/06/04 00:35:18;;;;;;;38.40;6.80;;;22.50;51.20;;;;;;5008850;28;20212;-84
2023/06/04 00:37:45;;;;;;;38.00;7.03;;;22.50;51.20;;;;;;5008736;28;20244;-84
2023/06/04 00:40:13;;;;;;;41.57;6.83;;;22.60;51.30;;;;;;5008916;28;20202;-85
2023/06/04 00:42:40;;;;;;;47.83;7.53;;;22.50;51.30;;;;;;5006448;28;20210;-85
2023/06/04 00:45:09;;;;;;;47.00;7.43;;;22.50;51.30;;;;;;5003922;28;20785;-86
2023/06/04 00:47:37;;;;;;;42.83;7.53;;;22.50;51.20;;;;;;5006372;28;20208;-85
2023/06/04 00:50:07;;;;;;;32.57;6.50;;;22.50;51.20;;;;;;5009319;28;20225;-85
2023/06/04 00:52:35;;;;;;;38.23;6.73;;;22.50;51.20;;;;;;5009770;28;20208;-88
2023/06/04 00:55:02;;;;;;;55.30;8.07;;;22.50;51.30;;;;;;5009828;28;20203;-85
2023/06/04 00:57:29;;;;;;;66.07;9.00;;;22.40;51.20;;;;;;5012981;28;20205;-87
2023/06/04 00:59:56;;;;;;;49.93;7.97;;;22.40;51.10;;;;;;5013594;28;20228;-85
2023/06/04 01:02:25;;;;;;;48.60;7.60;;;22.40;51.10;;;;;;5009017;28;20318;-85
2023/06/04 01:04:56;;;;;;;57.47;8.53;;;22.40;51.10;;;;;;5006087;28;20202;-85
2023/06/04 01:07:28;;;;;;;40.50;6.73;;;22.40;51.10;;;;;;5009528;28;20211;-85
2023/06/04 01:09:55;;;;;;;43.97;7.40;;;22.30;51.00;;;;;;5008249;28;20286;-85
2023/06/04 01:12:26;;;;;;;35.43;6.53;;;22.40;51.10;;;;;;5005157;28;20217;-90
2023/06/04 01:14:53;;;;;;;48.47;7.73;;;22.30;51.10;;;;;;5007213;28;20284;-87
2023/06/04 01:17:28;;;;;;;57.67;8.50;;;22.30;51.00;;;;;;5006462;28;20197;-87
2023/06/04 01:20:08;;;;;;;38.97;7.17;;;22.30;51.00;;;;;;5009190;28;20209;-89
2023/06/04 01:22:43;;;;;;;39.20;6.77;;;22.30;51.00;;;;;;5007082;28;20201;-86
2023/06/04 01:25:19;;;;;;;36.27;6.73;;;22.30;51.00;;;;;;5006376;28;20807;-87
2023/06/04 01:27:49;;;;;;;35.67;6.40;;;22.30;51.00;;;;;;5002412;28;20204;-87
2023/06/04 01:30:17;;;;;;;47.33;7.23;;;22.30;51.00;;;;;;5007393;28;20233;-88
2023/06/04 01:32:46;;;;;;;37.30;6.23;;;22.30;51.00;;;;;;5007911;28;20236;-87
2023/06/04 01:35:13;;;;;;;45.53;7.50;;;22.30;51.10;;;;;;5008970;28;20305;-86
2023/06/04 01:37:42;;;;;;;41.13;6.87;;;22.20;51.00;;;;;;5008713;28;20205;-87
2023/06/04 01:40:10;;;;;;;43.23;7.07;;;22.20;51.00;;;;;;5008880;28;20212;-87
2023/06/04 01:42:38;;;;;;;48.50;7.47;;;22.20;51.00;;;;;;5007872;28;20265;-86
2023/06/04 01:45:05;;;;;;;36.70;6.80;;;22.20;51.00;;;;;;5008629;28;20206;-86
2023/06/04 01:47:33;;;;;;;39.60;6.87;;;22.20;51.00;;;;;;5007388;28;20224;-88
2023/06/04 01:50:00;;;;;;;40.30;6.90;;;22.20;51.00;;;;;;5008785;28;20229;-88
2023/06/04 01:52:27;;;;;;;40.57;6.97;;;22.20;51.00;;;;;;4997809;28;20224;-87
2023/06/04 01:54:55;;;;;;;53.63;8.07;;;22.20;51.00;;;;;;5003313;28;20684;-87
2023/06/04 01:57:23;;;;;;;39.17;6.57;;;22.10;50.90;;;;;;5006188;28;20206;-87
2023/06/04 01:59:50;;;;;;;46.23;7.80;;;22.10;50.90;;;;;;5002822;28;20580;-87
2023/06/04 02:02:18;;;;;;;37.40;6.40;;;22.10;50.90;;;;;;5007190;28;20622;-87
2023/06/04 02:04:46;;;;;;;42.93;7.17;;;22.10;50.90;;;;;;5004306;28;20280;-87
2023/06/04 02:07:17;;;;;;;42.60;7.00;;;22.10;50.90;;;;;;5007424;28;20200;-87
2023/06/04 02:09:44;;;;;;;35.23;6.60;;;22.10;50.90;;;;;;5007696;28;20295;-86
2023/06/04 02:12:12;;;;;;;40.83;7.30;;;22.00;50.80;;;;;;5006365;28;20201;-88
2023/06/04 02:14:41;;;;;;;32.97;6.20;;;22.00;50.80;;;;;;5006284;28;20295;-88
2023/06/04 02:17:12;;;;;;;42.30;7.30;;;22.00;50.80;;;;;;5003991;28;20217;-88
2023/06/04 02:19:39;;;;;;;33.33;5.93;;;22.00;50.90;;;;;;5008468;28;20279;-88
2023/06/04 02:22:07;;;;;;;38.53;7.10;;;22.00;50.90;;;;;;5007558;28;20208;-87
2023/06/04 02:24:33;;;;;;;38.33;6.67;;;22.00;50.80;;;;;;5010227;28;20232;-87
2023/06/04 02:27:00;;;;;;;45.53;7.50;;;21.90;50.80;;;;;;5010756;28;20227;-88
2023/06/04 02:29:29;;;;;;;43.27;7.03;;;22.00;50.90;;;;;;5011909;28;20729;-87
2023/06/04 02:31:55;;;;;;;50.37;7.57;;;21.90;50.80;;;;;;5009148;28;20208;-87
2023/06/04 02:34:23;;;;;;;56.23;7.77;;;21.90;50.80;;;;;;5009887;28;20205;-87
2023/06/04 02:36:50;;;;;;;43.90;7.07;;;21.90;50.80;;;;;;5012048;28;20235;-87
2023/06/04 02:39:17;;;;;;;40.20;6.57;;;21.90;50.80;;;;;;5011745;28;20220;-87
2023/06/04 02:41:44;;;;;;;29.93;5.63;;;21.80;50.70;;;;;;5011650;28;20200;-87
2023/06/04 02:44:11;;;;;;;41.07;6.93;;;21.80;50.70;;;;;;5010265;28;20198;-87
2023/06/04 02:46:39;;;;;;;39.93;6.73;;;21.80;50.70;;;;;;5004749;28;20194;-89
2023/06/04 02:49:07;;;;;;;37.30;6.20;;;21.80;50.70;;;;;;4996625;28;20376;-88
2023/06/04 02:51:34;;;;;;;35.20;6.60;;;21.80;50.70;;;;;;5011412;28;20209;-87
2023/06/04 02:54:01;;;;;;;51.57;7.90;;;21.80;50.80;;;;;;5008227;28;20203;-86
2023/06/04 02:56:28;;;;;;;33.77;6.20;;;21.80;50.70;;;;;;5010041;28;20941;-87
2023/06/04 02:58:56;;;;;;;53.37;7.77;;;21.70;50.60;;;;;;5011346;28;20611;-86
2023/06/04 03:01:23;;;;;;;35.90;6.40;;;21.70;50.70;;;;;;5009880;28;20264;-90
2023/06/04 03:03:52;;;;;;;52.33;7.93;;;21.70;50.70;;;;;;5008915;28;20204;-88
2023/06/04 03:06:20;;;;;;;34.47;6.33;;;21.70;50.70;;;;;;5010992;28;20206;-87
2023/06/04 03:08:48;;;;;;;40.93;6.60;;;21.70;50.70;;;;;;5011263;28;20211;-89
2023/06/04 03:11:15;;;;;;;35.40;6.23;;;21.70;50.70;;;;;;5009004;28;20228;-88
2023/06/04 03:13:42;;;;;;;46.77;7.13;;;21.60;50.60;;;;;;5008962;28;20206;-86
2023/06/04 03:16:09;;;;;;;30.50;5.97;;;21.70;50.70;;;;;;5007954;28;20315;-87
2023/06/04 03:18:37;;;;;;;37.90;6.67;;;21.60;50.60;;;;;;5010049;28;20251;-86
2023/06/04 03:21:05;;;;;;;49.57;7.70;;;21.60;50.60;;;;;;5009437;28;20637;-86
2023/06/04 03:23:33;;;;;;;45.07;6.77;;;21.60;50.60;;;;;;5010015;28;20201;-86
2023/06/04 03:26:00;;;;;;;39.03;6.53;;;21.50;50.60;;;;;;5011338;28;20213;-86
2023/06/04 03:28:26;;;;;;;36.70;6.67;;;21.50;50.60;;;;;;5010899;28;20236;-86
2023/06/04 03:30:53;;;;;;;43.73;7.10;;;21.60;50.70;;;;;;5010827;28;20231;-86
2023/06/04 03:33:20;;;;;;;43.13;6.90;;;21.50;50.60;;;;;;5009522;28;20692;-86
2023/06/04 03:35:48;;;;;;;46.07;7.40;;;21.50;50.60;;;;;;5010991;28;20464;-86
2023/06/04 03:38:16;;;;;;;32.17;6.03;;;21.50;50.60;;;;;;5010815;28;20194;-86
2023/06/04 03:40:43;;;;;;;49.43;7.77;;;21.50;50.60;;;;;;5010561;28;20224;-85
2023/06/04 03:43:11;;;;;;;48.93;7.57;;;21.50;50.60;;;;;;5010156;28;20216;-89
2023/06/04 03:45:38;;;;;;;37.53;6.67;;;21.40;50.50;;;;;;5010742;28;20645;-87
2023/06/04 03:48:05;;;;;;;42.30;6.80;;;21.40;50.60;;;;;;5010223;28;20206;-87
2023/06/04 03:50:32;;;;;;;42.70;6.77;;;21.40;50.60;;;;;;5010006;28;20245;-86
2023/06/04 03:52:59;;;;;;;56.87;8.37;;;21.40;50.60;;;;;;5008712;28;20668;-88
2023/06/04 03:55:28;;;;;;;48.77;7.50;;;21.40;50.60;;;;;;5008358;28;20207;-86
2023/06/04 03:57:55;;;;;;;55.70;7.43;;;21.40;50.60;;;;;;5008747;28;20199;-86
2023/06/04 04:00:22;;;;;;;54.73;7.70;;;21.40;50.60;;;;;;5008995;28;20729;-86
2023/06/04 04:02:49;;;;;;;45.37;7.00;;;21.30;50.50;;;;;;5007475;28;20202;-86
2023/06/04 04:05:16;;;;;;;38.93;6.23;;;21.40;50.60;;;;;;5007960;28;20194;-86
2023/06/04 04:07:43;;;;;;;46.47;7.07;;;21.30;50.50;;;;;;5008529;28;20200;-87
2023/06/04 04:10:10;;;;;;;42.87;7.00;;;21.30;50.60;;;;;;5006953;28;20228;-86
2023/06/04 04:12:39;;;;;;;33.60;6.23;;;21.30;50.50;;;;;;5007830;28;20977;-88
2023/06/04 04:15:06;;;;;;;45.13;7.23;;;21.30;50.50;;;;;;5007485;28;20624;-89
2023/06/04 04:17:33;;;;;;;49.03;7.50;;;21.30;50.60;;;;;;5008758;28;20216;-86
2023/06/04 04:20:01;;;;;;;44.47;7.07;;;21.30;50.60;;;;;;5008630;28;20651;-86
2023/06/04 04:22:28;;;;;;;39.13;6.57;;;21.20;50.50;;;;;;5007357;28;20707;-87
2023/06/04 04:24:55;;;;;;;41.63;6.93;;;21.20;50.50;;;;;;5007479;28;20310;-86
2023/06/04 04:27:22;;;;;;;36.40;6.50;;;21.20;50.50;;;;;;5017339;28;20603;-86
2023/06/04 04:29:51;;;;;;;51.50;7.57;;;21.20;50.50;;;;;;5019938;28;20248;-86
2023/06/04 04:32:17;;;;;;;30.50;6.00;;;21.20;50.50;;;;;;5008732;28;20252;-87
2023/06/04 04:34:52;;;;;;;37.20;6.60;;;21.20;50.50;;;;;;5008727;28;20209;-87
2023/06/04 04:37:21;;;;;;;43.37;7.27;;;21.20;50.50;;;;;;5008416;28;20657;-85
2023/06/04 04:39:49;;;;;;;36.27;6.47;;;21.20;50.50;;;;;;5009118;28;20655;-87
2023/06/04 04:42:16;;;;;;;35.47;5.97;;;21.10;50.50;;;;;;5009926;28;20202;-86
2023/06/04 04:44:47;;;;;;;35.57;6.33;;;21.10;50.50;;;;;;5004794;28;20198;-86
2023/06/04 04:47:15;;;;;;;42.87;7.00;;;21.10;50.50;;;;;;4993867;28;20261;-86
2023/06/04 04:49:42;;;;;;;38.87;6.80;;;21.10;50.50;;;;;;5009299;28;20236;-90
2023/06/04 04:52:09;;;;;;;50.40;7.47;;;21.10;50.50;;;;;;5009794;28;20295;-88
2023/06/04 04:54:36;;;;;;;46.63;7.00;;;21.10;50.50;;;;;;5007059;28;20285;-86
2023/06/04 04:57:03;;;;;;;66.53;8.63;;;21.00;50.50;;;;;;5008065;28;20201;-85
2023/06/04 04:59:30;;;;;;;45.50;7.07;;;21.00;50.50;;;;;;5003930;28;20212;-86
2023/06/04 05:01:57;;;;;;;34.23;6.17;;;21.00;50.50;;;;;;5009070;28;20297;-86
2023/06/04 05:04:25;;;;;;;38.13;6.50;;;21.00;50.50;;;;;;5017520;28;20216;-88
2023/06/04 05:06:52;;;;;;;50.30;7.43;;;21.00;50.50;;;;;;5022214;28;20267;-86
2023/06/04 05:09:19;;;;;;;54.80;7.60;;;21.00;50.50;;;;;;5016577;28;20216;-90
2023/06/04 05:11:46;;;;;;;35.70;6.10;;;21.00;50.50;;;;;;5021592;28;20260;-88
2023/06/04 05:14:13;;;;;;;38.83;6.53;;;21.00;50.50;;;;;;5010517;28;20719;-88
2023/06/04 05:16:40;;;;;;;46.43;6.87;;;21.00;50.50;;;;;;5009828;28;20259;-86
2023/06/04 05:19:10;;;;;;;34.13;6.13;;;21.00;50.50;;;;;;5007718;28;20284;-85
2023/06/04 05:21:39;;;;;;;41.73;6.70;;;21.00;50.60;;;;;;5009881;28;20194;-86
2023/06/04 05:24:06;;;;;;;37.40;6.43;;;20.90;50.50;;;;;;5008707;28;20237;-86
2023/06/04 05:26:39;;;;;;;34.53;6.10;;;20.90;50.50;;;;;;5009089;28;20210;-86
2023/06/04 05:29:06;;;;;;;57.23;8.13;;;20.90;50.50;;;;;;5008048;28;20197;-85
2023/06/04 05:31:34;;;;;;;45.37;7.30;;;20.90;50.60;;;;;;4999214;28;20618;-85
2023/06/04 05:34:04;;;;;;;37.97;6.40;;;20.90;50.60;;;;;;5007340;28;20288;-86
2023/06/04 05:36:31;;;;;;;38.10;6.57;;;20.90;50.60;;;;;;5008122;28;20210;-87
2023/06/04 05:38:59;;;;;;;34.00;6.23;;;20.90;50.60;;;;;;5007074;28;20201;-86
2023/06/04 05:41:27;;;;;;;40.00;6.87;;;20.90;51.20;;;;;;5007626;28;20203;-85
2023/06/04 05:43:56;;;;;;;51.80;7.43;;;20.90;50.60;;;;;;5006329;28;20211;-86
2023/06/04 05:46:23;;;;;;;49.40;7.30;;;20.90;50.60;;;;;;5007924;28;20577;-87
2023/06/04 05:48:51;;;;;;;39.80;6.43;;;20.90;50.60;;;;;;5007117;28;20288;-86
2023/06/04 05:51:18;;;;;;;43.27;6.87;;;20.90;50.70;;;;;;5006776;28;20697;-87
2023/06/04 05:53:45;;;;;;;40.37;6.83;;;20.90;50.70;;;;;;5006333;28;20198;-86
2023/06/04 05:56:14;;;;;;;45.23;7.20;;;20.90;50.90;;;;;;5006907;28;20197;-88
2023/06/04 05:58:41;;;;;;;40.63;6.70;;;20.90;50.80;;;;;;5007995;28;20201;-86
2023/06/04 06:01:08;;;;;;;48.03;7.40;;;20.90;50.80;;;;;;5007676;28;20225;-90
2023/06/04 06:03:36;;;;;;;43.07;7.30;;;20.90;50.80;;;;;;5007903;28;20241;-90
2023/06/04 06:06:05;;;;;;;43.80;6.83;;;20.90;50.80;;;;;;5007304;28;20200;-89
2023/06/04 06:08:32;;;;;;;42.87;7.30;;;20.90;50.90;;;;;;5005869;28;20744;-86
2023/06/04 06:10:59;;;;;;;46.53;7.27;;;21.00;51.00;;;;;;5001470;28;20212;-86
2023/06/04 06:13:27;;;;;;;53.57;8.47;;;21.00;51.00;;;;;;5004852;28;20308;-89
2023/06/04 06:15:57;;;;;;;50.67;7.27;;;21.00;51.00;;;;;;5008079;28;20309;-91
2023/06/04 06:18:24;;;;;;;59.10;7.70;;;21.00;51.00;;;;;;5003899;28;20242;-90
2023/06/04 06:20:51;;;;;;;56.13;7.77;;;21.00;51.00;;;;;;5007988;28;20206;-88
2023/06/04 06:23:19;;;;;;;31.30;6.30;;;21.00;51.00;;;;;;5007086;28;20688;-86
2023/06/04 06:25:46;;;;;;;40.70;6.97;;;21.10;51.00;;;;;;5006075;28;20201;-86
2023/06/04 06:28:13;;;;;;;35.43;6.17;;;21.10;51.00;;;;;;5006917;28;20197;-85
2023/06/04 06:30:41;;;;;;;35.87;6.63;;;21.10;51.00;;;;;;5005839;28;20227;-86
2023/06/04 06:33:08;;;;;;;43.93;7.13;;;21.10;51.00;;;;;;5005618;28;20205;-86
2023/06/04 06:35:35;;;;;;;49.67;7.37;;;21.20;51.10;;;;;;5007494;28;20578;-86
2023/06/04 06:38:01;;;;;;;55.70;7.93;;;21.20;51.70;;;;;;5006084;28;20828;-90
2023/06/04 06:40:30;;;;;;;52.93;7.63;;;21.20;51.00;;;;;;5005029;28;20212;-89
2023/06/04 06:42:57;;;;;;;32.13;6.10;;;21.20;51.00;;;;;;5000632;28;20257;-90
2023/06/04 06:45:25;;;;;;;35.83;6.73;;;21.20;51.00;;;;;;5007164;28;20207;-87
2023/06/04 06:47:54;;;;;;;51.43;7.63;;;21.20;51.00;;;;;;5009899;28;20323;-87
2023/06/04 06:50:24;;;;;;;34.37;6.03;;;21.20;51.00;;;;;;4995336;28;20199;-87
2023/06/04 06:52:51;;;;;;;43.53;7.63;;;21.20;51.00;;;;;;5008682;28;20198;-87
2023/06/04 06:55:18;;;;;;;34.23;5.97;;;21.20;51.00;;;;;;5010580;28;20225;-88
2023/06/04 06:57:45;;;;;;;55.37;7.73;;;21.20;51.00;;;;;;5008500;28;21823;-88
2023/06/04 07:00:14;;;;;;;38.33;7.03;;;21.20;51.10;;;;;;5007452;28;20669;-88
2023/06/04 07:02:41;;;;;;;55.00;8.00;;;21.20;51.00;;;;;;5007616;28;20220;-89
2023/06/04 07:05:10;;;;;;;42.37;6.83;;;21.20;51.00;;;;;;5009851;28;20212;-89
2023/06/04 07:07:37;;;;;;;40.57;6.70;;;21.30;51.10;;;;;;5012426;28;20206;-86
2023/06/04 07:10:06;;;;;;;36.63;6.47;;;21.30;51.10;;;;;;5010988;28;20239;-87
2023/06/04 07:12:33;;;;;;;47.83;7.23;;;21.30;51.10;;;;;;5013997;28;20245;-89
2023/06/04 07:15:01;;;;;;;47.07;7.50;;;21.30;51.10;;;;;;5014472;28;20680;-89
2023/06/04 07:17:28;;;;;;;36.60;6.20;;;21.30;51.10;;;;;;5011777;28;20268;-89
2023/06/04 07:19:55;;;;;;;47.40;7.00;;;21.30;51.10;;;;;;5011360;28;20281;-87
2023/06/04 07:22:24;;;;;;;31.57;6.00;;;21.30;51.10;;;;;;5011684;28;20686;-88
2023/06/04 07:24:51;;;;;;;26.00;5.40;;;21.30;51.10;;;;;;5012355;28;20236;-88
2023/06/04 07:27:22;;;;;;;36.77;6.47;;;21.30;51.10;;;;;;5013757;28;20197;-87
2023/06/04 07:29:49;;;;;;;30.23;5.70;;;21.30;51.10;;;;;;5010343;28;20211;-87
2023/06/04 07:32:16;;;;;;;34.33;5.87;;;21.30;51.10;;;;;;5010476;28;20276;-88
2023/06/04 07:34:43;;;;;;;37.60;6.17;;;21.30;51.10;;;;;;5013239;28;20209;-87
2023/06/04 07:37:11;;;;;;;38.63;6.30;;;21.40;51.20;;;;;;5010761;28;20208;-86
2023/06/04 07:39:39;;;;;;;38.87;6.37;;;21.40;51.20;;;;;;5012829;28;20204;-87
2023/06/04 07:42:07;;;;;;;39.57;6.63;;;21.40;51.20;;;;;;5009863;28;20544;-87
2023/06/04 07:44:34;;;;;;;33.63;5.57;;;21.40;51.20;;;;;;5012094;28;20205;-87
2023/06/04 07:47:02;;;;;;;40.13;6.77;;;21.40;51.20;;;;;;5011278;28;20547;-86
2023/06/04 07:49:28;;;;;;;41.97;6.70;;;21.40;51.20;;;;;;5009867;28;20208;-87
2023/06/04 07:51:55;;;;;;;43.73;6.47;;;21.40;51.20;;;;;;5009402;28;20318;-87
2023/06/04 07:54:23;;;;;;;37.40;6.43;;;21.40;51.20;;;;;;5010572;28;20203;-86
2023/06/04 07:56:55;;;;;;;44.80;6.87;;;21.40;51.20;;;;;;5017926;28;20205;-86
2023/06/04 07:59:22;;;;;;;41.33;6.87;;;21.40;51.20;;;;;;5032287;28;20206;-87
2023/06/04 08:01:50;;;;;;;46.27;6.97;;;21.50;51.30;;;;;;5020527;28;20322;-86
2023/06/04 08:04:17;;;;;;;34.43;6.40;;;21.50;51.30;;;;;;5022725;28;20304;-86
2023/06/04 08:06:45;;;;;;;28.27;5.30;;;21.50;51.30;;;;;;5012559;28;20283;-86
2023/06/04 08:09:14;;;;;;;37.50;6.17;;;21.50;51.30;;;;;;5009873;28;20201;-86
2023/06/04 08:11:44;;;;;;;25.63;5.57;;;21.50;51.30;;;;;;5011425;28;20601;-86
2023/06/04 08:14:15;;;;;;;44.43;7.07;;;21.50;51.30;;;;;;5008784;28;20213;-86
2023/06/04 08:16:42;;;;;;;28.10;5.50;;;21.50;51.30;;;;;;5009733;28;20212;-86
2023/06/04 08:19:09;;;;;;;41.20;6.30;;;21.60;51.40;;;;;;5007777;28;20555;-87
2023/06/04 08:21:37;;;;;;;51.33;7.43;;;21.60;51.40;;;;;;5008893;28;20205;-86
2023/06/04 08:24:04;;;;;;;35.90;6.23;;;21.70;51.50;;;;;;5009787;28;20217;-86
2023/06/04 08:26:32;;;;;;;32.83;5.67;;;21.70;51.50;;;;;;5009932;28;20221;-87
2023/06/04 08:28:59;;;;;;;36.43;6.23;;;21.70;51.50;;;;;;5008057;28;20289;-88
2023/06/04 08:31:28;;;;;;;39.90;6.20;;;21.70;51.50;;;;;;5008239;28;21104;-87
2023/06/04 08:33:54;;;;;;;47.57;7.17;;;21.70;51.50;;;;;;5008281;28;20212;-86
2023/06/04 08:36:22;;;;;;;41.23;7.20;;;21.70;51.60;;;;;;5013524;28;20300;-87
2023/06/04 08:38:52;;;;;;;39.70;6.60;;;21.80;51.60;;;;;;5011777;28;20268;-88
2023/06/04 08:41:26;;;;;;;36.53;6.70;;;21.80;51.70;;;;;;5010585;28;20256;-87
2023/06/04 08:43:56;;;;;;;38.83;6.13;;;21.80;51.70;;;;;;5010320;28;20202;-89
2023/06/04 08:46:24;;;;;;;43.17;6.57;;;21.80;51.70;;;;;;5006714;28;20204;-88
2023/06/04 08:48:56;;;;;;;33.03;5.90;;;21.80;51.70;;;;;;5011614;28;20325;-89
2023/06/04 08:51:23;;;;;;;48.10;7.43;;;21.90;51.80;;;;;;5009300;28;20348;-90
2023/06/04 08:53:53;;;;;;;42.83;7.40;;;21.90;51.80;;;;;;5009459;28;20208;-90
2023/06/04 08:56:22;;;;;;;38.47;6.30;;;21.90;51.80;;;;;;5011259;28;20252;-88
2023/06/04 08:58:49;;;;;;;49.43;7.20;;;22.00;51.90;;;;;;5010606;28;20206;-90
2023/06/04 09:01:19;;;;;;;40.57;6.43;;;22.00;51.90;;;;;;5005015;28;20241;-93
2023/06/04 09:03:46;;;;;;;32.27;5.53;;;22.00;51.90;;;;;;5004541;28;20198;-91
2023/06/04 09:06:15;;;;;;;39.13;6.03;;;22.10;52.00;;;;;;5009417;28;20205;-89
2023/06/04 09:08:45;;;;;;;39.93;6.70;;;22.10;52.00;;;;;;5000252;28;20279;-87
2023/06/04 09:11:16;;;;;;;27.40;5.27;;;22.20;52.10;;;;;;5012148;28;20202;-86
2023/06/04 09:13:49;;;;;;;32.10;6.03;;;22.20;52.10;;;;;;5012618;28;20208;-87
2023/06/04 09:16:15;;;;;;;28.63;5.97;;;22.20;52.00;;;;;;5019083;28;20273;-91
2023/06/04 09:18:45;;;;;;;27.80;5.27;;;22.30;52.10;;;;;;5003707;28;20266;-89
2023/06/04 09:21:19;;;;;;;41.50;6.23;;;22.30;52.20;;;;;;5009762;28;20668;-87
2023/06/04 09:23:48;;;;;;;29.93;5.77;;;22.30;52.10;;;;;;5017525;28;20237;-86
2023/06/04 09:26:15;;;;;;;39.00;6.33;;;22.30;52.10;;;;;;5029426;28;20207;-86
2023/06/04 09:28:42;;;;;;;36.77;6.00;;;22.40;52.80;;;;;;5008146;28;20206;-93
2023/06/04 09:31:10;;;;;;;35.77;6.13;;;22.40;52.20;;;;;;5013307;28;20208;-88
2023/06/04 09:33:44;;;;;;;39.23;6.13;;;22.50;52.30;;;;;;5010906;28;20869;-93
2023/06/04 09:36:20;;;;;;;32.93;5.73;;;22.50;52.30;;;;;;5012879;28;20240;-90
2023/06/04 09:38:47;;;;;;;39.57;6.40;;;22.60;52.30;;;;;;5011993;28;20237;-87
2023/06/04 09:41:14;;;;;;;37.40;6.37;;;22.60;52.30;;;;;;5010653;28;20296;-91
2023/06/04 09:43:41;;;;;;;51.73;7.53;;;22.60;52.30;;;;;;5008283;28;20575;-86
2023/06/04 09:46:10;;;;;;;48.57;7.57;;;22.70;52.10;;;;;;5007739;28;20201;-86
2023/06/04 09:48:37;;;;;;;42.10;6.83;;;22.70;51.30;;;;;;5007934;28;20209;-86
2023/06/04 09:51:09;;;;;;;22.80;5.10;;;22.70;51.10;;;;;;5007354;28;20207;-85
2023/06/04 09:53:38;;;;;;;31.00;6.23;;;22.80;50.90;;;;;;5008070;28;20225;-86
2023/06/04 09:56:07;;;;;;;37.27;6.43;;;22.80;50.70;;;;;;5005306;28;20657;-86
2023/06/04 09:58:35;;;;;;;24.87;5.47;;;22.90;50.60;;;;;;5008611;28;20212;-85
2023/06/04 10:01:05;;;;;;;42.37;7.03;;;23.00;50.60;;;;;;5007732;28;20236;-86
2023/06/04 10:03:33;;;;;;;35.33;6.03;;;23.00;50.00;;;;;;5007357;28;20201;-86
2023/06/04 10:06:04;;;;;;;33.67;6.00;;;23.10;50.00;;;;;;5011366;28;20209;-87
2023/06/04 10:08:33;;;;;;;49.27;7.47;;;23.20;49.80;;;;;;5009511;28;20197;-85
